»·PEaware :: UAL576 KLAS-KSNA

UAL576 :: KLAS-KSNA

FLIGHT INFORMATION

Flight Status: Arrived
Operator:
United Airlines
More flights by this operator :: More flights under this callsign
Pilot: Anonymous 8274 (8274)
Aircraft: BOEING 737-200
(B732)
More flights by this aircraft type
Origin: KLAS McCarran Intl
United States
Destination: KSNA John Wayne-Orange Co
United States
More flights between these airports :: More routes between these airports
Route: +MCCRN5 HEC KAYOH7
File this flight plan on PilotEdge
Remarks:
Altitude:
(Current/Filed)
28,000ft
Speed:
(Current/Filed)
460kts
Departed: 29-Dec-17 10:18 PM
Arrived: 29-Dec-17 11:05 PM
Distance/Time
Traveled:
197nm/0:47
Distance/Time
To Go:
Arrived

Flight Plot

Page will automatically refresh every two minutes.

Flight plan parsing failed; only flown route is shown


Map Options




Map Legend


Flown Route
Filed Route
Departure Airport
Arrival Airport
Navaid (VOR, NDB)
Fix

Horizontal Profiles

Position Reports

Time Latitude Longitude Heading Altitude Ground
Speed
29-Dec-17 21:52 36.079882 -115.139541 355 2120ft 0kts
29-Dec-17 21:53 36.079882 -115.139541 355 2120ft 0kts
29-Dec-17 21:54 36.079882 -115.139541 355 2120ft 0kts
29-Dec-17 21:55 36.079882 -115.139541 355 2120ft 0kts
29-Dec-17 21:56 36.079882 -115.139541 355 2120ft 0kts
29-Dec-17 21:57 36.079882 -115.139541 355 2120ft 0kts
29-Dec-17 21:58 36.079882 -115.139541 355 2120ft 0kts
29-Dec-17 21:59 36.079882 -115.139541 355 2120ft 0kts
29-Dec-17 22:00 36.079882 -115.139541 355 2120ft 0kts
29-Dec-17 22:01 36.079882 -115.139541 355 2120ft 0kts
29-Dec-17 22:02 36.079882 -115.139541 355 2120ft 0kts
29-Dec-17 22:03 36.079882 -115.139541 355 2120ft 0kts
29-Dec-17 22:04 36.079882 -115.139541 355 2120ft 0kts
29-Dec-17 22:05 36.079882 -115.139541 355 2120ft 0kts
29-Dec-17 22:06 36.079882 -115.139541 355 2120ft 0kts
29-Dec-17 22:07 36.079882 -115.139541 355 2120ft 0kts
29-Dec-17 22:08 36.079470 -115.139478 344 2120ft 2kts
29-Dec-17 22:09 36.079349 -115.138942 226 2120ft 1kts
29-Dec-17 22:10 36.079380 -115.138901 228 2120ft 0kts
29-Dec-17 22:11 36.079380 -115.138901 228 2120ft 0kts
29-Dec-17 22:12 36.079380 -115.138901 228 2120ft 0kts
29-Dec-17 22:13 36.079380 -115.138901 228 2120ft 0kts
29-Dec-17 22:14 36.079195 -115.139159 234 2120ft 9kts
29-Dec-17 22:15 36.077751 -115.142497 207 2120ft 13kts
29-Dec-17 22:16 36.077846 -115.148121 272 2120ft 26kts
29-Dec-17 22:17 36.078020 -115.158258 269 2120ft 31kts
29-Dec-17 22:18 36.077460 -115.163436 204 2120ft 0kts
29-Dec-17 22:19 36.077460 -115.163436 204 2120ft 0kts
29-Dec-17 22:20 36.077460 -115.163436 204 2120ft 0kts
29-Dec-17 22:21 36.076073 -115.164285 207 2120ft 15kts
29-Dec-17 22:22 36.073934 -115.166246 291 2120ft 0kts
29-Dec-17 22:23 36.075310 -115.166885 25 2120ft 23kts
29-Dec-17 22:24 36.107562 -115.152155 347 3398ft 163kts
29-Dec-17 22:25 36.150494 -115.200713 276 5332ft 249kts
29-Dec-17 22:26 36.102815 -115.241267 181 7002ft 283kts
29-Dec-17 22:27 36.025531 -115.258115 192 6932ft 276kts
29-Dec-17 22:28 35.948685 -115.276317 191 8983ft 280kts
29-Dec-17 22:29 35.873493 -115.294975 192 11198ft 304kts
29-Dec-17 22:30 35.785993 -115.317011 192 13245ft 327kts
29-Dec-17 22:31 35.696324 -115.340266 192 15414ft 335kts
29-Dec-17 22:32 35.608978 -115.378213 222 17272ft 348kts
29-Dec-17 22:33 35.543252 -115.467854 226 18917ft 358kts
29-Dec-17 22:34 35.477747 -115.558408 226 20396ft 364kts
29-Dec-17 22:35 35.411680 -115.648503 226 21674ft 371kts
29-Dec-17 22:36 35.348090 -115.734117 226 22745ft 377kts
29-Dec-17 22:37 35.276374 -115.829343 225 23535ft 390kts
29-Dec-17 22:38 35.203670 -115.925202 226 24769ft 388kts
29-Dec-17 22:39 35.129493 -116.022097 226 25633ft 393kts
29-Dec-17 22:40 35.054193 -116.119528 226 26510ft 398kts
29-Dec-17 22:41 34.980305 -116.220755 228 27282ft 403kts
29-Dec-17 22:42 34.908162 -116.319454 228 27945ft 407kts
29-Dec-17 22:43 34.835206 -116.407687 221 28242ft 417kts
29-Dec-17 22:44 34.748108 -116.504904 224 28211ft 428kts
29-Dec-17 22:45 34.668059 -116.607409 228 25829ft 415kts
29-Dec-17 22:46 34.603195 -116.706751 229 24212ft 394kts
29-Dec-17 22:47 34.532809 -116.799487 225 24199ft 358kts
29-Dec-17 22:48 34.465814 -116.883465 222 23703ft 350kts
29-Dec-17 22:49 34.395456 -116.964537 222 21119ft 367kts
29-Dec-17 22:50 34.323546 -117.049093 222 19298ft 355kts
29-Dec-17 22:51 34.252634 -117.129547 205 17388ft 344kts
29-Dec-17 22:52 34.161101 -117.141940 179 15608ft 330kts
29-Dec-17 22:53 34.070717 -117.141889 179 13844ft 324kts
29-Dec-17 22:54 33.982102 -117.148688 186 12234ft 314kts
29-Dec-17 22:55 33.899252 -117.164137 192 11030ft 295kts
29-Dec-17 22:56 33.833258 -117.178602 185 10997ft 255kts
29-Dec-17 22:57 33.767659 -117.203783 241 10990ft 252kts
29-Dec-17 22:58 33.777097 -117.283775 286 9127ft 249kts
29-Dec-17 22:59 33.779759 -117.362672 267 8057ft 243kts
29-Dec-17 23:00 33.778617 -117.436990 269 8004ft 207kts
29-Dec-17 23:01 33.778857 -117.506796 269 8010ft 212kts
29-Dec-17 23:02 33.779071 -117.575402 270 7037ft 205kts
29-Dec-17 23:03 33.798412 -117.636280 309 5782ft 197kts
29-Dec-17 23:04 33.830454 -117.682736 309 4499ft 192kts
29-Dec-17 23:05 33.849238 -117.737602 236 3016ft 180kts
29-Dec-17 23:06 33.820016 -117.779315 212 2908ft 162kts
29-Dec-17 23:07 33.781181 -117.802313 205 2206ft 150kts
29-Dec-17 23:08 33.745110 -117.824622 207 1743ft 147kts
29-Dec-17 23:09 33.709433 -117.847201 209 741ft 141kts
29-Dec-17 23:10 33.676210 -117.868490 207 65ft 116kts
29-Dec-17 23:11 33.668185 -117.871866 41 65ft 16kts
29-Dec-17 23:12 33.671751 -117.868402 33 65ft 20kts
29-Dec-17 23:13 33.677143 -117.864532 29 65ft 24kts
29-Dec-17 23:14 33.677950 -117.863187 118 65ft 0kts
29-Dec-17 23:15 33.693739 -117.857395 208 366ft 140kts
29-Dec-17 23:16 33.668523 -117.873383 208 65ft 18kts
29-Dec-17 23:17 33.668319 -117.873511 203 65ft 18kts
29-Dec-17 23:18 33.668993 -117.873078 208 65ft 33kts
29-Dec-17 23:19 33.675061 -117.869219 207 65ft 109kts
29-Dec-17 23:20 33.704795 -117.850236 207 587ft 141kts
29-Dec-17 23:21 33.672323 -117.870966 207 65ft 89kts
29-Dec-17 23:22 33.702451 -117.851721 207 539ft 141kts
29-Dec-17 23:23 33.671002 -117.871802 207 65ft 63kts
29-Dec-17 23:24 33.668967 -117.871042 40 65ft 17kts
29-Dec-17 23:25 33.673277 -117.867047 39 65ft 21kts

Navigation Log

Ident Type
Flight plan parsing failed, navigation log unavailable